createdAt,value
2018-06-14T00:02:51.968Z,101232.00
2018-06-14T00:07:45.206Z,101226.00
2018-06-14T00:12:38.464Z,101226.00
2018-06-14T00:17:31.789Z,101214.00
2018-06-14T00:22:25.018Z,101211.00
2018-06-14T00:27:18.300Z,101216.00
2018-06-14T00:32:11.775Z,101217.00
2018-06-14T00:37:05.046Z,101207.00
2018-06-14T00:41:58.296Z,101214.00
2018-06-14T00:46:51.551Z,101211.00
2018-06-14T00:51:44.778Z,101215.00
2018-06-14T00:56:54.973Z,101207.00
2018-06-14T01:01:48.629Z,101211.00
2018-06-14T01:06:41.898Z,101210.00
2018-06-14T01:11:35.153Z,101218.00
2018-06-14T01:16:28.418Z,101214.00
2018-06-14T01:21:21.677Z,101215.00
2018-06-14T01:26:15.716Z,101209.00
2018-06-14T01:31:08.969Z,101206.00
2018-06-14T01:36:02.181Z,101205.00
2018-06-14T01:40:55.438Z,101213.00
2018-06-14T01:45:48.902Z,101196.00
2018-06-14T01:50:42.159Z,101207.00
2018-06-14T01:55:35.408Z,101210.00
2018-06-14T02:00:28.842Z,101209.00
2018-06-14T02:05:22.166Z,101213.00
2018-06-14T02:10:15.408Z,101208.00
2018-06-14T02:15:08.668Z,101207.00
2018-06-14T02:20:01.940Z,101208.00
2018-06-14T02:24:55.156Z,101205.00
2018-06-14T02:29:48.387Z,101202.00
2018-06-14T02:34:41.671Z,101207.00
2018-06-14T02:39:34.955Z,101207.00
2018-06-14T02:44:28.278Z,101202.00
2018-06-14T02:49:22.479Z,101204.00
2018-06-14T02:54:15.754Z,101202.00
2018-06-14T02:59:08.995Z,101197.00
2018-06-14T03:04:02.327Z,101200.00
2018-06-14T03:08:55.590Z,101198.00
2018-06-14T03:13:48.874Z,101196.00
2018-06-14T03:18:43.316Z,101190.00
2018-06-14T03:23:36.582Z,101190.00
2018-06-14T03:28:29.874Z,101188.00
2018-06-14T03:33:23.384Z,101181.00
2018-06-14T03:38:16.714Z,101174.00
2018-06-14T03:43:10.025Z,101175.00
2018-06-14T03:48:03.283Z,101172.00
2018-06-14T03:52:56.486Z,101169.00
2018-06-14T03:57:49.716Z,101169.00
2018-06-14T04:02:42.933Z,101170.00
2018-06-14T04:07:36.149Z,101169.00
2018-06-14T04:12:29.428Z,101172.00
2018-06-14T04:17:22.654Z,101165.00
2018-06-14T04:22:15.923Z,101170.00
2018-06-14T04:27:09.156Z,101171.00
2018-06-14T04:32:02.400Z,101172.00
2018-06-14T04:36:55.618Z,101174.00
2018-06-14T04:41:48.864Z,101167.00
2018-06-14T04:46:42.113Z,101160.00
2018-06-14T04:51:39.880Z,101160.00
2018-06-14T04:56:33.172Z,101158.00
2018-06-14T05:01:26.428Z,101149.00
2018-06-14T05:06:19.721Z,101142.00
2018-06-14T05:11:12.984Z,101146.00
2018-06-14T05:16:06.239Z,101141.00
2018-06-14T05:20:59.490Z,101141.00
2018-06-14T05:25:52.728Z,101144.00
2018-06-14T05:30:46.001Z,101132.00
2018-06-14T05:35:39.246Z,101124.00
2018-06-14T05:40:32.516Z,101128.00
2018-06-14T05:45:25.805Z,101134.00
2018-06-14T05:50:19.076Z,101122.00
2018-06-14T05:55:12.379Z,101130.00
2018-06-14T06:00:09.783Z,101124.00
2018-06-14T06:05:03.091Z,101119.00
2018-06-14T06:09:56.335Z,101123.00
2018-06-14T06:14:49.586Z,101120.00
2018-06-14T06:19:42.864Z,101118.00
2018-06-14T06:24:36.109Z,101109.00
2018-06-14T06:29:29.476Z,101092.00
2018-06-14T06:34:22.712Z,101087.00
2018-06-14T06:39:15.946Z,101078.00
2018-06-14T06:44:09.508Z,101087.00
2018-06-14T06:49:02.828Z,101088.00
2018-06-14T06:53:56.068Z,101088.00
2018-06-14T06:58:49.445Z,101087.00
2018-06-14T07:03:42.679Z,101076.00
2018-06-14T07:08:35.942Z,101077.00
2018-06-14T07:13:29.377Z,101071.00
2018-06-14T07:18:22.695Z,101062.00
2018-06-14T07:23:15.947Z,101060.00
2018-06-14T07:28:09.196Z,101051.00
2018-06-14T07:33:02.847Z,101065.00
2018-06-14T07:37:56.436Z,101067.00
2018-06-14T07:42:49.646Z,101055.00
2018-06-14T07:47:42.896Z,101055.00
2018-06-14T07:52:36.146Z,101056.00
2018-06-14T07:57:29.415Z,101054.00
2018-06-14T08:02:22.683Z,101037.00
2018-06-14T08:07:16.098Z,101039.00
2018-06-14T08:12:09.436Z,101033.00
2018-06-14T08:17:02.734Z,101015.00
2018-06-14T08:21:55.963Z,101017.00
2018-06-14T08:26:49.228Z,101029.00
2018-06-14T08:31:42.665Z,101043.00
2018-06-14T08:36:35.930Z,101051.00
2018-06-14T08:41:29.226Z,101044.00
2018-06-14T08:46:22.502Z,101032.00
2018-06-14T08:51:15.792Z,101034.00
2018-06-14T08:56:09.073Z,101029.00
2018-06-14T09:01:02.336Z,101024.00
2018-06-14T09:05:55.660Z,101012.00
2018-06-14T09:10:48.900Z,100993.00
2018-06-14T09:15:42.259Z,100997.00
2018-06-14T09:20:37.102Z,100995.00
2018-06-14T09:25:30.483Z,101006.00
2018-06-14T09:30:23.759Z,101002.00
2018-06-14T09:35:17.054Z,101003.00
2018-06-14T09:40:10.382Z,101002.00
2018-06-14T09:45:03.888Z,101006.00
2018-06-14T09:49:57.172Z,101002.00
2018-06-14T09:54:50.479Z,101003.00
2018-06-14T09:59:43.780Z,100987.00
2018-06-14T10:04:37.062Z,100999.00
2018-06-14T10:09:30.432Z,100997.00
2018-06-14T10:14:23.696Z,100992.00
2018-06-14T10:19:17.002Z,100989.00
2018-06-14T10:24:10.289Z,100997.00
2018-06-14T10:29:03.521Z,100994.00
2018-06-14T10:33:56.894Z,100988.00
2018-06-14T10:38:50.500Z,100996.00
2018-06-14T10:43:43.748Z,101004.00
2018-06-14T10:48:37.359Z,100999.00
2018-06-14T10:53:30.656Z,100995.00
2018-06-14T10:58:23.920Z,100991.00
2018-06-14T11:03:17.253Z,100988.00
2018-06-14T11:08:10.502Z,100980.00
2018-06-14T11:13:03.786Z,100974.00
2018-06-14T11:17:57.149Z,100972.00
2018-06-14T11:22:50.414Z,100962.00
2018-06-14T11:27:43.697Z,100959.00
2018-06-14T11:32:36.985Z,100956.00
2018-06-14T11:37:30.318Z,100948.00
2018-06-14T11:42:23.567Z,100941.00
2018-06-14T11:47:16.837Z,100933.00
2018-06-14T11:52:10.124Z,100937.00
2018-06-14T11:57:03.438Z,100930.00
2018-06-14T12:01:57.001Z,100920.00
2018-06-14T12:06:50.597Z,100920.00
2018-06-14T12:11:43.868Z,100919.00
2018-06-14T12:16:37.126Z,100908.00
2018-06-14T12:21:30.451Z,100912.00
2018-06-14T12:26:23.663Z,100904.00
2018-06-14T12:31:16.942Z,100898.00
2018-06-14T12:36:10.218Z,100892.00
2018-06-14T12:41:03.484Z,100901.00
2018-06-14T12:45:56.848Z,100883.00
2018-06-14T12:50:50.144Z,100878.00
2018-06-14T12:55:43.496Z,100873.00
2018-06-14T13:00:36.748Z,100880.00
2018-06-14T13:05:30.043Z,100872.00
2018-06-14T13:10:23.346Z,100865.00
2018-06-14T13:15:16.681Z,100863.00
2018-06-14T13:20:09.977Z,100864.00
2018-06-14T13:25:03.241Z,100865.00
2018-06-14T13:29:56.598Z,100857.00
2018-06-14T13:34:49.894Z,100861.00
2018-06-14T13:39:43.152Z,100855.00
2018-06-14T13:44:36.482Z,100850.00
2018-06-14T13:49:29.831Z,100847.00
2018-06-14T13:54:23.126Z,100849.00
2018-06-14T13:59:16.395Z,100857.00
2018-06-14T14:04:09.674Z,100857.00
2018-06-14T14:09:03.288Z,100855.00
2018-06-14T14:13:56.541Z,100854.00
2018-06-14T14:18:49.892Z,100860.00
2018-06-14T14:23:43.244Z,100860.00
2018-06-14T14:28:36.563Z,100858.00
2018-06-14T14:33:29.831Z,100862.00
2018-06-14T14:38:23.570Z,100864.00
2018-06-14T14:43:16.839Z,100862.00
2018-06-14T14:48:10.432Z,100864.00
2018-06-14T14:53:03.823Z,100870.00
2018-06-14T14:57:57.149Z,100868.00
2018-06-14T15:02:50.400Z,100869.00
2018-06-14T15:07:43.650Z,100871.00
2018-06-14T15:12:36.952Z,100888.00
2018-06-14T15:17:30.307Z,100893.00
2018-06-14T15:22:23.586Z,100900.00
2018-06-14T15:27:16.867Z,100909.00
2018-06-14T15:32:10.144Z,100911.00
2018-06-14T15:37:03.433Z,100912.00
2018-06-14T15:41:56.710Z,100922.00
2018-06-14T15:46:49.974Z,100927.00
2018-06-14T15:51:43.291Z,100936.00
2018-06-14T15:56:40.443Z,100940.00
2018-06-14T16:01:33.718Z,100946.00
2018-06-14T16:06:26.984Z,100954.00
2018-06-14T16:11:20.271Z,100956.00
2018-06-14T16:16:13.649Z,100951.00
2018-06-14T16:21:06.945Z,100958.00
2018-06-14T16:26:00.190Z,100968.00
2018-06-14T16:30:53.502Z,100968.00
2018-06-14T16:35:46.889Z,100976.00
2018-06-14T16:40:40.153Z,100971.00
2018-06-14T16:45:33.467Z,100975.00
2018-06-14T16:50:26.749Z,100973.00
2018-06-14T16:55:20.167Z,100984.00
2018-06-14T17:00:13.479Z,100988.00
2018-06-14T17:05:06.817Z,100999.00
2018-06-14T17:10:00.680Z,100997.00
2018-06-14T17:14:53.944Z,100993.00
2018-06-14T17:19:47.205Z,100995.00
2018-06-14T17:24:40.479Z,101001.00
2018-06-14T17:29:33.925Z,101010.00
2018-06-14T17:34:28.110Z,101004.00
2018-06-14T17:39:22.014Z,101006.00
2018-06-14T17:44:15.298Z,101002.00
2018-06-14T17:49:08.598Z,101006.00
2018-06-14T17:54:01.879Z,101002.00
2018-06-14T17:58:55.498Z,100999.00
2018-06-14T18:03:48.778Z,101003.00
2018-06-14T18:08:42.022Z,101005.00
2018-06-14T18:13:35.288Z,101004.00
2018-06-14T18:18:28.539Z,101013.00
2018-06-14T18:23:21.799Z,101015.00
2018-06-14T18:28:15.094Z,101021.00
2018-06-14T18:33:08.446Z,101021.00
2018-06-14T18:38:01.842Z,101023.00
2018-06-14T18:42:55.171Z,101020.00
2018-06-14T18:47:48.490Z,101029.00
2018-06-14T18:52:41.769Z,101018.00
2018-06-14T18:57:35.116Z,101032.00
2018-06-14T19:02:28.610Z,101030.00
2018-06-14T19:07:21.918Z,101029.00
2018-06-14T19:12:15.271Z,101038.00
2018-06-14T19:17:08.689Z,101035.00
2018-06-14T19:22:02.114Z,101046.00
2018-06-14T19:26:55.641Z,101060.00
2018-06-14T19:31:49.303Z,101062.00
2018-06-14T19:36:42.661Z,101060.00
2018-06-14T19:41:36.075Z,101058.00
2018-06-14T19:46:29.318Z,101063.00
2018-06-14T19:51:22.633Z,101071.00
2018-06-14T19:56:16.250Z,101075.00
2018-06-14T20:01:09.581Z,101081.00
2018-06-14T20:06:02.990Z,101091.00
2018-06-14T20:10:56.272Z,101107.00
2018-06-14T20:15:49.566Z,101104.00
2018-06-14T20:20:42.912Z,101106.00
2018-06-14T20:25:36.204Z,101108.00
2018-06-14T20:30:29.496Z,101110.00
2018-06-14T20:35:22.851Z,101109.00
2018-06-14T20:40:16.137Z,101114.00
2018-06-14T20:45:09.367Z,101120.00
2018-06-14T20:50:02.735Z,101115.00
2018-06-14T20:54:56.021Z,101117.00
2018-06-14T20:59:49.475Z,101119.00
2018-06-14T21:04:42.743Z,101116.00
2018-06-14T21:09:36.072Z,101124.00
2018-06-14T21:14:29.341Z,101129.00
2018-06-14T21:19:22.604Z,101132.00
2018-06-14T21:24:15.950Z,101135.00
2018-06-14T21:29:09.408Z,101130.00
2018-06-14T21:34:02.918Z,101130.00
2018-06-14T21:38:56.190Z,101130.00
2018-06-14T21:43:49.478Z,101125.00
2018-06-14T21:48:43.152Z,101128.00
2018-06-14T21:53:36.424Z,101129.00
2018-06-14T21:58:29.706Z,101132.00
2018-06-14T22:03:28.533Z,101132.00
2018-06-14T22:08:21.780Z,101143.00
2018-06-14T22:13:15.077Z,101139.00
2018-06-14T22:18:08.440Z,101140.00
2018-06-14T22:23:01.765Z,101149.00
2018-06-14T22:27:55.041Z,101142.00
2018-06-14T22:35:09.905Z,101137.00
2018-06-14T22:40:03.214Z,101132.00
2018-06-14T22:44:56.984Z,101138.00
2018-06-14T22:49:50.280Z,101142.00
2018-06-14T22:54:43.592Z,101139.00
2018-06-14T22:59:36.854Z,101137.00
2018-06-14T23:04:30.199Z,101134.00
2018-06-14T23:10:39.295Z,101131.00
2018-06-14T23:15:32.611Z,101128.00
2018-06-14T23:20:26.812Z,101118.00
2018-06-14T23:25:20.805Z,101120.00
2018-06-14T23:30:14.717Z,101122.00
2018-06-14T23:35:07.972Z,101122.00
2018-06-14T23:40:01.253Z,101120.00
2018-06-14T23:44:55.914Z,101123.00
2018-06-14T23:49:49.179Z,101127.00
2018-06-14T23:54:42.432Z,101128.00
2018-06-14T23:59:35.840Z,101121.00
